createdAt,value
2023-11-18T00:01:49.673Z,93.95
2023-11-18T00:05:52.615Z,70.75
2023-11-18T00:09:55.414Z,67.53
2023-11-18T00:14:00.899Z,106.22
2023-11-18T00:18:04.656Z,86.80
2023-11-18T00:22:08.321Z,80.50
2023-11-18T00:26:11.578Z,72.65
2023-11-18T00:30:16.514Z,75.35
2023-11-18T00:34:19.560Z,72.28
2023-11-18T00:38:22.270Z,64.13
2023-11-18T00:42:25.038Z,62.35
2023-11-18T00:46:29.622Z,68.57
2023-11-18T00:50:32.732Z,62.80
2023-11-18T00:54:36.980Z,65.75
2023-11-18T00:58:41.640Z,63.63
2023-11-18T01:02:48.189Z,118.88
2023-11-18T01:06:52.546Z,66.18
2023-11-18T01:10:55.522Z,61.13
2023-11-18T01:14:58.358Z,77.90
2023-11-18T01:19:02.569Z,69.53
2023-11-18T01:23:05.783Z,90.38
2023-11-18T01:27:10.913Z,70.78
2023-11-18T01:31:14.588Z,202.70
2023-11-18T01:35:19.109Z,54.75
2023-11-18T01:39:22.109Z,54.25
2023-11-18T01:43:25.209Z,48.42
2023-11-18T01:47:28.982Z,50.17
2023-11-18T01:51:33.176Z,61.75
2023-11-18T01:55:36.555Z,266.38
2023-11-18T01:59:41.758Z,144.23
2023-11-18T02:03:44.800Z,290.38
2023-11-18T02:07:49.167Z,241.73
2023-11-18T02:11:56.192Z,69.93
2023-11-18T02:15:59.688Z,205.77
2023-11-18T02:20:07.353Z,73.15
2023-11-18T02:24:12.426Z,68.03
2023-11-18T02:28:16.972Z,61.97
2023-11-18T02:32:24.953Z,69.85
2023-11-18T02:36:37.194Z,140.05
2023-11-18T02:40:45.343Z,130.15
2023-11-18T02:44:51.125Z,225.35
2023-11-18T02:48:55.158Z,104.82
2023-11-18T02:57:01.073Z,108.28
2023-11-18T03:01:06.343Z,337.77
2023-11-18T03:05:12.920Z,131.48
2023-11-18T03:09:16.543Z,112.43
2023-11-18T03:13:19.424Z,85.45
2023-11-18T03:17:24.143Z,86.22
2023-11-18T03:21:27.751Z,92.10
2023-11-18T03:25:30.685Z,89.85
2023-11-18T03:29:33.551Z,94.28
2023-11-18T03:33:37.756Z,82.53
2023-11-18T03:37:43.266Z,137.95
2023-11-18T03:41:46.925Z,66.95
2023-11-18T03:45:49.671Z,79.55
2023-11-18T03:49:56.042Z,66.63
2023-11-18T03:53:58.906Z,72.55
2023-11-18T03:58:02.443Z,86.78
2023-11-18T04:02:05.654Z,81.20
2023-11-18T04:06:10.445Z,71.78
2023-11-18T04:10:13.476Z,73.13
2023-11-18T04:14:16.202Z,75.18
2023-11-18T04:18:19.296Z,69.90
2023-11-18T04:22:23.573Z,81.13
2023-11-18T04:26:26.811Z,54.97
2023-11-18T04:30:30.052Z,51.72
2023-11-18T04:34:34.070Z,76.65
2023-11-18T04:42:41.611Z,61.25
2023-11-18T04:46:45.138Z,55.95
2023-11-18T04:50:47.977Z,81.80
2023-11-18T04:54:52.178Z,50.28
2023-11-18T04:58:56.103Z,54.42
2023-11-18T05:03:00.238Z,42.30
2023-11-18T05:07:03.500Z,46.75
2023-11-18T05:11:08.085Z,69.15
2023-11-18T05:15:11.033Z,59.33
2023-11-18T05:19:13.929Z,56.55
2023-11-18T05:23:17.145Z,49.80
2023-11-18T05:27:21.722Z,68.57
2023-11-18T05:31:24.453Z,75.35
2023-11-18T05:35:29.617Z,62.00
2023-11-18T05:39:32.769Z,66.50
2023-11-18T05:43:41.194Z,52.83
2023-11-18T05:47:44.358Z,167.77
2023-11-18T05:51:47.425Z,80.72
2023-11-18T05:55:51.069Z,71.35
2023-11-18T05:59:56.144Z,52.50
2023-11-18T06:03:59.095Z,243.77
2023-11-18T06:08:01.973Z,44.53
2023-11-18T06:12:10.043Z,58.08
2023-11-18T06:16:16.713Z,63.08
2023-11-18T06:20:21.625Z,58.95
2023-11-18T06:24:24.380Z,56.33
2023-11-18T06:28:27.333Z,58.55
2023-11-18T06:32:32.189Z,76.85
2023-11-18T06:36:34.965Z,64.40
2023-11-18T06:40:37.890Z,71.13
2023-11-18T06:44:40.602Z,54.42
2023-11-18T06:48:44.863Z,56.95
2023-11-18T06:52:48.189Z,60.53
2023-11-18T06:56:52.696Z,51.28
2023-11-18T07:00:55.501Z,59.55
2023-11-18T07:04:59.760Z,48.70
2023-11-18T07:09:02.605Z,65.88
2023-11-18T07:13:05.309Z,58.42
2023-11-18T07:17:09.721Z,62.72
2023-11-18T07:21:15.655Z,60.15
2023-11-18T07:25:18.519Z,55.63
2023-11-18T07:29:21.378Z,63.83
2023-11-18T07:33:24.374Z,82.00
2023-11-18T07:37:29.244Z,91.18
2023-11-18T07:41:34.106Z,61.50
2023-11-18T07:45:38.696Z,82.07
2023-11-18T07:49:42.366Z,132.82
2023-11-18T07:53:46.477Z,58.00
2023-11-18T08:01:51.897Z,57.65
2023-11-18T08:05:54.644Z,51.85
2023-11-18T08:09:58.914Z,76.55
2023-11-18T08:14:01.737Z,52.28
2023-11-18T08:18:05.313Z,59.00
2023-11-18T08:22:10.288Z,51.00
2023-11-18T08:26:15.490Z,54.95
2023-11-18T08:30:19.428Z,53.80
2023-11-18T08:34:22.334Z,51.30
2023-11-18T08:38:25.644Z,43.92
2023-11-18T08:42:30.533Z,37.85
2023-11-18T08:46:33.365Z,42.13
2023-11-18T08:50:37.307Z,57.28
2023-11-18T08:59:04.553Z,45.60
2023-11-18T09:03:07.760Z,49.38
2023-11-18T09:07:11.371Z,42.20
2023-11-18T09:11:16.809Z,55.50
2023-11-18T09:15:23.693Z,41.22
2023-11-18T09:19:26.538Z,37.42
2023-11-18T09:23:30.041Z,28.30
2023-11-18T09:27:34.217Z,38.03
2023-11-18T09:31:38.778Z,37.85
2023-11-18T09:35:42.177Z,40.00
2023-11-18T09:39:47.156Z,32.60
2023-11-18T09:43:54.226Z,29.77
2023-11-18T09:48:02.664Z,24.55
2023-11-18T09:52:07.048Z,27.33
2023-11-18T09:56:19.950Z,28.20
2023-11-18T10:00:27.619Z,24.35
2023-11-18T10:04:32.744Z,29.45
2023-11-18T10:08:39.189Z,22.63
2023-11-18T10:12:42.660Z,33.55
2023-11-18T10:16:48.129Z,33.00
2023-11-18T10:20:53.424Z,33.50
2023-11-18T10:24:56.740Z,35.95
2023-11-18T10:29:08.294Z,27.45
2023-11-18T10:33:12.907Z,19.80
2023-11-18T10:37:18.266Z,30.13
2023-11-18T10:41:21.432Z,21.25
2023-11-18T10:45:28.865Z,22.20
2023-11-18T10:49:38.384Z,25.38
2023-11-18T10:53:54.840Z,24.48
2023-11-18T10:58:02.660Z,24.08
2023-11-18T11:02:22.756Z,25.20
2023-11-18T11:06:26.289Z,28.63
2023-11-18T11:10:30.590Z,25.88
2023-11-18T11:14:38.066Z,31.48
2023-11-18T11:18:46.417Z,23.75
2023-11-18T11:22:59.480Z,19.67
2023-11-18T11:27:18.365Z,20.00
2023-11-18T11:31:24.777Z,20.70
2023-11-18T11:35:34.370Z,20.27
2023-11-18T11:39:37.902Z,25.30
2023-11-18T11:43:42.471Z,21.75
2023-11-18T11:47:47.703Z,17.77
2023-11-18T11:51:55.332Z,22.90
2023-11-18T11:56:06.633Z,15.88
2023-11-18T12:00:17.671Z,17.60
2023-11-18T12:04:26.732Z,19.77
2023-11-18T12:08:31.197Z,18.58
2023-11-18T12:12:36.081Z,15.70
2023-11-18T12:17:12.670Z,16.85
2023-11-18T12:21:56.123Z,21.35
2023-11-18T12:25:59.757Z,18.80
2023-11-18T12:34:11.531Z,24.02
2023-11-18T12:38:59.058Z,18.80
2023-11-18T12:43:14.575Z,21.02
2023-11-18T12:47:22.222Z,19.08
2023-11-18T12:51:26.550Z,21.02
2023-11-18T12:55:32.641Z,16.58
2023-11-18T12:59:35.814Z,15.80
2023-11-18T13:03:39.014Z,17.80
2023-11-18T13:07:44.509Z,18.67
2023-11-18T13:11:48.721Z,17.75
2023-11-18T13:15:55.020Z,20.40
2023-11-18T13:19:59.386Z,18.67
2023-11-18T13:24:09.874Z,22.08
2023-11-18T13:28:13.862Z,22.23
2023-11-18T13:36:34.340Z,15.18
2023-11-18T13:40:48.959Z,14.45
2023-11-18T13:44:54.144Z,18.35
2023-11-18T13:48:57.414Z,15.10
2023-11-18T13:53:00.387Z,13.38
2023-11-18T13:57:05.285Z,18.95
2023-11-18T14:01:09.687Z,19.38
2023-11-18T14:05:18.483Z,13.50
2023-11-18T14:09:22.676Z,16.30
2023-11-18T14:13:36.192Z,12.13
2023-11-18T14:17:39.068Z,13.38
2023-11-18T14:21:42.772Z,12.00
2023-11-18T14:25:45.511Z,17.27
2023-11-18T14:29:50.031Z,15.30
2023-11-18T14:33:52.774Z,15.38
2023-11-18T14:37:55.763Z,15.25
2023-11-18T14:41:59.295Z,15.27
2023-11-18T14:46:04.991Z,14.43
2023-11-18T14:50:19.005Z,14.70
2023-11-18T14:54:22.021Z,10.85
2023-11-18T14:58:24.781Z,11.43
2023-11-18T15:02:29.888Z,10.90
2023-11-18T15:06:32.753Z,11.82
2023-11-18T15:10:35.491Z,10.23
2023-11-18T15:14:40.216Z,10.70
2023-11-18T15:18:48.437Z,13.48
2023-11-18T15:22:51.932Z,10.75
2023-11-18T15:26:55.561Z,22.27
2023-11-18T15:30:58.477Z,15.13
2023-11-18T15:35:02.691Z,9.48
2023-11-18T15:39:07.179Z,13.52
2023-11-18T15:43:12.784Z,18.33
2023-11-18T15:47:16.380Z,13.55
2023-11-18T15:51:23.585Z,13.10
2023-11-18T15:55:26.504Z,29.58
2023-11-18T15:59:29.713Z,14.35
2023-11-18T16:03:32.554Z,12.40
2023-11-18T16:07:36.762Z,9.27
2023-11-18T16:11:39.508Z,13.05
2023-11-18T16:15:42.490Z,8.95
2023-11-18T16:19:45.871Z,9.45
2023-11-18T16:23:50.472Z,11.27
2023-11-18T16:27:54.394Z,10.65
2023-11-18T16:31:57.421Z,4.80
2023-11-18T16:36:00.852Z,12.10
2023-11-18T16:40:05.848Z,13.15
2023-11-18T16:44:10.857Z,5.60
2023-11-18T16:48:13.564Z,7.63
2023-11-18T16:52:16.922Z,9.60
2023-11-18T16:56:21.339Z,9.65
2023-11-18T17:00:24.994Z,13.07
2023-11-18T17:08:31.290Z,8.85
2023-11-18T17:12:36.816Z,7.28
2023-11-18T17:16:39.666Z,6.65
2023-11-18T17:20:42.668Z,6.57
2023-11-18T17:24:45.490Z,8.45
2023-11-18T17:28:51.689Z,8.98
2023-11-18T17:32:54.859Z,9.00
2023-11-18T17:36:58.166Z,10.32
2023-11-18T17:41:00.911Z,15.80
2023-11-18T17:45:06.658Z,14.68
2023-11-18T17:49:10.042Z,13.50
2023-11-18T17:53:12.815Z,9.52
2023-11-18T17:57:16.119Z,12.90
2023-11-18T18:01:21.183Z,9.40
2023-11-18T18:05:25.477Z,8.90
2023-11-18T18:09:28.615Z,16.00
2023-11-18T18:13:32.707Z,10.35
2023-11-18T18:17:37.950Z,11.23
2023-11-18T18:21:41.250Z,13.23
2023-11-18T18:25:44.388Z,15.38
2023-11-18T18:29:47.421Z,14.95
2023-11-18T18:33:52.351Z,20.83
2023-11-18T18:37:55.165Z,24.98
2023-11-18T18:41:58.451Z,31.58
2023-11-18T18:46:01.399Z,17.33
2023-11-18T18:50:08.623Z,17.42
2023-11-18T18:54:12.347Z,13.15
2023-11-18T18:58:15.175Z,12.63
2023-11-18T19:02:18.041Z,11.88
2023-11-18T19:06:22.271Z,12.90
2023-11-18T19:10:26.172Z,16.30
2023-11-18T19:14:29.110Z,10.77
2023-11-18T19:18:31.884Z,16.13
2023-11-18T19:22:36.275Z,12.80
2023-11-18T19:26:39.183Z,13.35
2023-11-18T19:30:41.928Z,12.38
2023-11-18T19:34:44.645Z,12.43
2023-11-18T19:38:49.001Z,11.80
2023-11-18T19:42:51.990Z,10.07
2023-11-18T19:46:54.732Z,18.23
2023-11-18T19:50:57.816Z,9.90
2023-11-18T19:55:02.073Z,12.15
2023-11-18T19:59:05.964Z,11.13
2023-11-18T20:03:09.064Z,19.25
2023-11-18T20:07:11.873Z,16.58
2023-11-18T20:11:16.077Z,12.85
2023-11-18T20:15:19.093Z,15.27
2023-11-18T20:19:22.467Z,35.45
2023-11-18T20:23:27.239Z,14.38
2023-11-18T20:27:31.409Z,8.80
2023-11-18T20:31:34.143Z,9.50
2023-11-18T20:35:37.093Z,6.07
2023-11-18T20:39:41.690Z,4.18
2023-11-18T20:43:46.165Z,8.57
2023-11-18T20:47:49.864Z,7.78
2023-11-18T20:51:54.220Z,14.50
2023-11-18T20:55:56.956Z,17.38
2023-11-18T21:00:01.376Z,19.63
2023-11-18T21:04:04.361Z,22.83
2023-11-18T21:08:09.154Z,11.73
2023-11-18T21:12:18.205Z,15.55
2023-11-18T21:16:23.731Z,11.52
2023-11-18T21:20:26.499Z,9.48
2023-11-18T21:24:29.272Z,14.45
2023-11-18T21:28:32.362Z,12.75
2023-11-18T21:32:42.714Z,11.07
2023-11-18T21:36:45.768Z,17.98
2023-11-18T21:40:48.670Z,11.20
2023-11-18T21:44:52.205Z,12.55
2023-11-18T21:48:56.357Z,13.30
2023-11-18T21:52:59.848Z,10.30
2023-11-18T21:57:02.634Z,10.98
2023-11-18T22:01:06.665Z,12.73
2023-11-18T22:05:11.232Z,15.77
2023-11-18T22:09:14.259Z,13.32
2023-11-18T22:13:17.096Z,8.90
2023-11-18T22:17:20.145Z,9.60
2023-11-18T22:21:24.799Z,7.32
2023-11-18T22:25:28.183Z,8.18
2023-11-18T22:29:31.249Z,9.98
2023-11-18T22:33:35.940Z,7.43
2023-11-18T22:37:40.187Z,5.80
2023-11-18T22:41:42.997Z,5.63
2023-11-18T22:45:47.618Z,15.30
2023-11-18T22:49:50.375Z,8.02
2023-11-18T22:53:55.811Z,7.93
2023-11-18T22:57:58.875Z,6.25
2023-11-18T23:02:03.415Z,5.40
2023-11-18T23:06:10.783Z,5.97
2023-11-18T23:10:16.152Z,10.48
2023-11-18T23:14:18.910Z,10.05
2023-11-18T23:18:21.779Z,7.60
2023-11-18T23:22:25.223Z,4.13
2023-11-18T23:26:30.776Z,3.38
2023-11-18T23:30:33.874Z,3.90
2023-11-18T23:34:36.607Z,4.00
2023-11-18T23:38:39.982Z,4.75
2023-11-18T23:42:44.697Z,5.07
2023-11-18T23:46:47.549Z,3.50
2023-11-18T23:50:51.397Z,6.47
